D/T METAR WX W/DIR W/SPE G/SPE TEMP DEWP
19/03/19 03:00 EIDW 190300Z 25007KT 210V280 9999 FEW006 BKN029 08/06 Q1024 TEMPO BKN015 WSW (250°) 8.1mph 8°C 6°C
19/03/19 02:30 EIDW 190230Z 23006KT 190V270 9999 FEW005 BKN030 08/07 Q1024 TEMPO BKN015 SW (230°) 6.9mph 8°C 7°C
19/03/19 02:00 EIDW 190200Z 24005KT 200V280 9999 FEW005 BKN028 07/07 Q1024 TEMPO BKN015 WSW (240°) 5.8mph 7°C 7°C
19/03/19 01:30 EIDW 190130Z 26008KT 9999 FEW007 SCT027 07/06 Q1023 TEMPO BKN015 W (260°) 9.2mph 7°C 6°C
19/03/19 01:00 EIDW 190100Z 27008KT 9999 SCT008 BKN011 07/07 Q1023 TEMPO BKN015 W (270°) 9.2mph 7°C 7°C
19/03/19 00:30 EIDW 190030Z 27010KT 9999 SCT010 SCT021 BKN028 08/07 Q1023 NOSIG W (270°) 11.5mph 8°C 7°C
19/03/19 00:00 EIDW 190000Z 26009KT 9999 FEW004 SCT015 BKN020 08/07 Q1024 NOSIG W (260°) 10.4mph 8°C 7°C
18/03/19 23:30 EIDW 182330Z 27011KT 9000 -DZ FEW004 SCT008 BKN016 08/08 Q1024 NOSIG -DZ W (270°) 12.7mph 8°C 8°C
18/03/19 23:00 EIDW 182300Z 27009KT 9999 -DZ FEW007 BKN009 BKN045 09/07 Q1024 NOSIG -DZ W (270°) 10.4mph 9°C 7°C
18/03/19 22:30 EIDW 182230Z 27010KT 9999 -RA FEW008 BKN011 BKN045 08/08 Q1023 NOSIG -RA W (270°) 11.5mph 8°C 8°C
18/03/19 22:00 EIDW 182200Z 27010KT 9999 -RA FEW005 SCT014 BKN040 09/08 Q1023 NOSIG -RA W (270°) 11.5mph 9°C 8°C
18/03/19 21:30 EIDW 182130Z 26009KT 9999 FEW008 SCT045 BKN090 08/07 Q1023 NOSIG W (260°) 10.4mph 8°C 7°C
18/03/19 21:00 EIDW 182100Z 26009KT 9999 FEW008 BKN060 09/07 Q1023 NOSIG W (260°) 10.4mph 9°C 7°C
18/03/19 20:30 EIDW 182030Z 26009KT 9999 FEW008 SCT012 BKN060 09/07 Q1022 NOSIG W (260°) 10.4mph 9°C 7°C
18/03/19 20:00 EIDW 182000Z 27008KT 9999 FEW007 SCT010 BKN060 09/07 Q1022 NOSIG W (270°) 9.2mph 9°C 7°C
18/03/19 19:30 EIDW 181930Z 26008KT 230V290 9999 FEW007 SCT010 BKN022 09/07 Q1022 NOSIG W (260°) 9.2mph 9°C 7°C
18/03/19 19:00 EIDW 181900Z 27010KT 9999 SCT010 SCT022 BKN050 09/07 Q1022 NOSIG W (270°) 11.5mph 9°C 7°C
18/03/19 18:30 EIDW 181830Z 27013KT 9999 SCT012 BKN024 BKN050 09/07 Q1021 NOSIG W (270°) 15.0mph 9°C 7°C
18/03/19 18:00 EIDW 181800Z 27015KT 9999 SCT016 BKN024 BKN050 09/07 Q1021 NOSIG W (270°) 17.3mph 9°C 7°C
18/03/19 17:30 EIDW 181730Z 27015KT 9999 SCT016 SCT024 BKN050 10/07 Q1021 NOSIG W (270°) 17.3mph 10°C 7°C
18/03/19 17:00 EIDW 181700Z 27013KT 9999 FEW016 SCT024 BKN040 10/07 Q1020 NOSIG W (270°) 15.0mph 10°C 7°C
18/03/19 16:30 EIDW 181630Z 27013KT 9999 FEW017 SCT024 BKN040 10/07 Q1020 NOSIG W (270°) 15.0mph 10°C 7°C
18/03/19 16:00 EIDW 181600Z 27016KT 9999 FEW017 SCT024 BKN100 10/07 Q1019 NOSIG W (270°) 18.4mph 10°C 7°C
18/03/19 15:30 EIDW 181530Z 26015KT 9999 SCT016 BKN022 BKN090 10/07 Q1019 NOSIG W (260°) 17.3mph 10°C 7°C
18/03/19 15:00 EIDW 181500Z 27017KT 9999 SCT016 BKN024 BKN090 11/07 Q1019 NOSIG W (270°) 19.6mph 11°C 7°C
18/03/19 14:30 EIDW 181430Z 27016KT 9999 SCT016 SCT024 BKN100 11/08 Q1019 NOSIG W (270°) 18.4mph 11°C 8°C
18/03/19 14:00 EIDW 181400Z 27014KT 230V290 9999 SCT016 BKN024 10/07 Q1019 NOSIG W (270°) 16.1mph 10°C 7°C
18/03/19 13:30 EIDW 181330Z 27016KT 9999 FEW012 BKN016 BKN026 10/06 Q1019 NOSIG W (270°) 18.4mph 10°C 6°C
18/03/19 13:00 EIDW 181300Z 27015KT 9999 FEW010 BKN014 BKN024 09/07 Q1019 NOSIG W (270°) 17.3mph 9°C 7°C
18/03/19 12:30 EIDW 181230Z 26014KT 9999 FEW009 SCT011 BKN019 09/06 Q1019 NOSIG W (260°) 16.1mph 9°C 6°C
18/03/19 12:00 EIDW 181200Z 26013KT 9999 -RADZ FEW009 SCT014 BKN019 09/07 Q1019 NOSIG -RA -DZ W (260°) 15.0mph 9°C 7°C
18/03/19 11:30 EIDW 181130Z 26015KT 9999 SCT012 SCT016 BKN019 09/06 Q1018 NOSIG W (260°) 17.3mph 9°C 6°C
18/03/19 11:00 EIDW 181100Z 26016KT 9999 SCT011 SCT018 BKN060 09/07 Q1018 NOSIG W (260°) 18.4mph 9°C 7°C
18/03/19 10:30 EIDW 181030Z 26014KT 9999 SCT009 SCT018 BKN070 08/06 Q1018 NOSIG W (260°) 16.1mph 8°C 6°C
18/03/19 10:00 EIDW 181000Z 25011KT 210V280 9999 FEW008 SCT010 BKN070 07/06 Q1018 NOSIG WSW (250°) 12.7mph 7°C 6°C
18/03/19 09:30 EIDW 180930Z 25011KT 200V280 9999 FEW008 BKN010 BKN013 07/05 Q1018 NOSIG WSW (250°) 12.7mph 7°C 5°C
18/03/19 09:00 EIDW 180900Z 24011KT 210V270 9999 FEW008 BKN012 OVC080 06/04 Q1018 NOSIG WSW (240°) 12.7mph 6°C 4°C
18/03/19 08:30 EIDW 180830Z 24008KT 200V280 9999 SCT006 SCT017 BKN060 06/05 Q1018 NOSIG WSW (240°) 9.2mph 6°C 5°C
18/03/19 08:00 EIDW 180800Z 24008KT 200V280 9999 FEW007 BKN070 BKN090 06/04 Q1018 NOSIG WSW (240°) 9.2mph 6°C 4°C
18/03/19 07:30 EIDW 180730Z 25009KT 220V280 9999 -DZ FEW007 SCT011 BKN090 05/04 Q1018 NOSIG -DZ WSW (250°) 10.4mph 5°C 4°C
18/03/19 07:00 EIDW 180700Z 24009KT 200V280 9999 -RA FEW007 SCT009 BKN011 05/04 Q1018 NOSIG -RA WSW (240°) 10.4mph 5°C 4°C
18/03/19 06:30 EIDW 180630Z 24008KT 210V280 9999 -RA FEW008 SCT013 BKN060 05/04 Q1018 NOSIG -RA WSW (240°) 9.2mph 5°C 4°C
18/03/19 06:00 EIDW 180600Z 24008KT 210V280 9999 -RA FEW013 SCT060 BKN080 05/04 Q1018 NOSIG -RA WSW (240°) 9.2mph 5°C 4°C
18/03/19 05:30 EIDW 180530Z 25009KT 200V270 9999 -RA FEW009 SCT011 BKN050 05/04 Q1018 NOSIG -RA WSW (250°) 10.4mph 5°C 4°C
18/03/19 05:00 EIDW 180500Z 25008KT 210V290 9999 -RA FEW009 SCT011 BKN042 05/03 Q1018 NOSIG -RA WSW (250°) 9.2mph 5°C 3°C
18/03/19 04:30 EIDW 180430Z 25009KT 220V280 9999 -RA FEW010 SCT023 BKN050 05/04 Q1018 NOSIG -RA WSW (250°) 10.4mph 5°C 4°C
18/03/19 04:00 EIDW 180400Z 25009KT 9999 -RA FEW016 BKN048 05/03 Q1018 NOSIG -RA WSW (250°) 10.4mph 5°C 3°C
18/03/19 03:30 EIDW 180330Z 26012KT 9999 -RA FEW022 BKN050 BKN070 05/03 Q1018 NOSIG -RA W (260°) 13.8mph 5°C 3°C
18/03/19 03:00 EIDW 180300Z 26011KT 9999 -RA FEW022 SCT060 BKN090 05/03 Q1018 NOSIG -RA W (260°) 12.7mph 5°C 3°C
18/03/19 02:30 EIDW 180230Z 25008KT 9999 FEW022 BKN050 BKN090 05/03 Q1018 NOSIG WSW (250°) 9.2mph 5°C 3°C
18/03/19 02:00 EIDW 180200Z 26010KT 9999 FEW022 BKN080 BKN100 05/03 Q1018 NOSIG W (260°) 11.5mph 5°C 3°C
18/03/19 01:30 EIDW 180130Z 26013KT 9999 FEW022 SCT110 BKN130 05/02 Q1018 NOSIG W (260°) 15.0mph 5°C 2°C
18/03/19 01:00 EIDW 180100Z 26013KT 9999 FEW022 SCT110 BKN150 04/02 Q1018 NOSIG W (260°) 15.0mph 4°C 2°C
18/03/19 00:30 EIDW 180030Z 26013KT 9999 FEW020 SCT130 BKN170 04/02 Q1018 NOSIG W (260°) 15.0mph 4°C 2°C
18/03/19 00:00 EIDW 180000Z 26013KT 9999 FEW020 SCT130 BKN170 04/02 Q1018 NOSIG W (260°) 15.0mph 4°C 2°C
17/03/19 23:30 EIDW 172330Z 26014KT 9999 FEW018 SCT120 BKN150 04/02 Q1017 NOSIG W (260°) 16.1mph 4°C 2°C
17/03/19 23:00 EIDW 172300Z 27015KT 9999 FEW018 BKN150 05/02 Q1017 NOSIG W (270°) 17.3mph 5°C 2°C
17/03/19 22:30 EIDW 172230Z 27012KT 9999 FEW018 SCT220 04/02 Q1017 NOSIG W (270°) 13.8mph 4°C 2°C
17/03/19 22:00 EIDW 172200Z 27015KT 9999 FEW018 SCT220 04/02 Q1016 NOSIG W (270°) 17.3mph 4°C 2°C
17/03/19 21:30 EIDW 172130Z 28016KT 9999 FEW018 SCT220 05/02 Q1016 NOSIG W (280°) 18.4mph 5°C 2°C
17/03/19 21:00 EIDW 172100Z 27013KT 9999 FEW018 SCT220 05/02 Q1016 NOSIG W (270°) 15.0mph 5°C 2°C
17/03/19 20:30 EIDW 172030Z 28013KT 9999 FEW018 SCT220 05/01 Q1016 NOSIG W (280°) 15.0mph 5°C 1°C
17/03/19 20:00 EIDW 172000Z 28014KT 9999 FEW018 SCT220 05/01 Q1015 NOSIG W (280°) 16.1mph 5°C 1°C
17/03/19 19:30 EIDW 171930Z 29015KT 9999 FEW018 SCT220 06/02 Q1014 NOSIG WNW (290°) 17.3mph 6°C 2°C
17/03/19 19:00 EIDW 171900Z 29014KT 9999 FEW018 BKN220 07/02 Q1014 NOSIG WNW (290°) 16.1mph 7°C 2°C
17/03/19 18:30 EIDW 171830Z 29010KT 9999 FEW018 BKN220 07/03 Q1013 NOSIG WNW (290°) 11.5mph 7°C 3°C
17/03/19 18:00 EIDW 171800Z 30013KT 9999 FEW018 BKN220 07/03 Q1013 NOSIG WNW (300°) 15.0mph 7°C 3°C
17/03/19 17:30 EIDW 171730Z 30015KT 9999 FEW018CB BKN220 07/03 Q1012 NOSIG WNW (300°) 17.3mph 7°C 3°C
17/03/19 17:00 EIDW 171700Z 31020KT 9999 -SHRA SCT018CB BKN200 08/02 Q1011 NOSIG -SHRA NW (310°) 23.0mph 8°C 2°C
17/03/19 16:30 EIDW 171630Z 31021KT 9999 FEW018CB SCT040 BKN200 09/03 Q1010 NOSIG NW (310°) 24.2mph 9°C 3°C
17/03/19 16:00 EIDW 171600Z 32020KT 9999 FEW018CB SCT040 BKN200 09/02 Q1010 NOSIG NW (320°) 23.0mph 9°C 2°C
17/03/19 15:30 EIDW 171530Z 31023KT 9999 FEW018CB SCT032 10/03 Q1009 NOSIG NW (310°) 26.5mph 10°C 3°C
17/03/19 15:00 EIDW 171500Z 30022KT 9999 FEW018CB SCT032 11/03 Q1008 NOSIG WNW (300°) 25.3mph 11°C 3°C
17/03/19 14:30 EIDW 171430Z 31017KT 9999 FEW018CB SCT032 10/04 Q1007 NOSIG NW (310°) 19.6mph 10°C 4°C
17/03/19 14:00 EIDW 171400Z 31018KT 9999 FEW014 FEW020CB BKN032 10/03 Q1006 NOSIG NW (310°) 20.7mph 10°C 3°C
17/03/19 13:30 EIDW 171330Z 30020KT 9999 FEW014 FEW020CB BKN032 09/04 Q1006 NOSIG WNW (300°) 23.0mph 9°C 4°C
17/03/19 13:00 EIDW 171300Z 28024KT 9999 FEW014 SCT025 10/04 Q1005 NOSIG W (280°) 27.6mph 10°C 4°C
17/03/19 12:30 EIDW 171230Z 28023G33KT 9999 FEW014 BKN025 09/04 Q1005 NOSIG W (280°) 26.5mph 38.0mph 9°C 4°C
17/03/19 12:00 EIDW 171200Z 27019KT 9999 FEW014 BKN025 07/03 Q1005 NOSIG W (270°) 21.9mph 7°C 3°C
17/03/19 11:30 EIDW 171130Z 27023KT 9999 FEW012 SCT023 BKN040 06/03 Q1004 NOSIG W (270°) 26.5mph 6°C 3°C
17/03/19 11:00 EIDW 171100Z 26021G32KT 9999 FEW012 SCT023 BKN040 05/02 Q1004 NOSIG W (260°) 24.2mph 36.8mph 5°C 2°C
17/03/19 10:30 EIDW 171030Z 26022G32KT 9999 -SHRA FEW012 SCT023 BKN040 05/02 Q1004 NOSIG -SHRA W (260°) 25.3mph 36.8mph 5°C 2°C
17/03/19 10:00 EIDW 171000Z 25016KT 210V280 9999 FEW020 BKN070 05/02 Q1004 NOSIG WSW (250°) 18.4mph 5°C 2°C
17/03/19 09:30 EIDW 170930Z 25013KT 210V270 9999 FEW020 SCT150 05/01 Q1003 NOSIG WSW (250°) 15.0mph 5°C 1°C
17/03/19 09:00 EIDW 170900Z 25013KT 220V290 9999 FEW020 SCT150 03/01 Q1003 NOSIG WSW (250°) 15.0mph 3°C 1°C
17/03/19 08:30 EIDW 170830Z 25012KT 200V280 9999 FEW020 SCT150 02/00 Q1003 NOSIG WSW (250°) 13.8mph 2°C 0°C
17/03/19 08:00 EIDW 170800Z 25012KT 9999 FEW020 SCT150 02/M00 Q1003 NOSIG WSW (250°) 13.8mph 2°C 0°C
17/03/19 07:30 EIDW 170730Z 24010KT 200V270 9999 FEW020 SCT220 01/M00 Q1002 NOSIG WSW (240°) 11.5mph 1°C 0°C
17/03/19 07:00 EIDW 170700Z 25012KT 210V270 9999 VCSH FEW018CB 01/M01 Q1002 NOSIG VCSH WSW (250°) 13.8mph 1°C -1°C
17/03/19 06:30 EIDW 170630Z 25011KT 230V290 9999 -SHRA FEW018 SCT060 01/M01 Q1002 NOSIG -SHRA WSW (250°) 12.7mph 1°C -1°C
17/03/19 06:00 EIDW 170600Z 25012KT 9999 FEW018 01/M01 Q1001 NOSIG WSW (250°) 13.8mph 1°C -1°C
17/03/19 05:30 EIDW 170530Z 26014KT 9999 FEW018 01/M01 Q1001 NOSIG W (260°) 16.1mph 1°C -1°C
17/03/19 05:00 EIDW 170500Z 25011KT 220V280 9999 FEW018 01/M01 Q1000 NOSIG WSW (250°) 12.7mph 1°C -1°C
17/03/19 04:30 EIDW 170430Z 26014KT 9999 FEW010 01/M01 Q1000 NOSIG W (260°) 16.1mph 1°C -1°C
17/03/19 04:00 EIDW 170400Z 26015KT 9999 FEW010 01/M00 Q1000 NOSIG W (260°) 17.3mph 1°C 0°C
17/03/19 03:30 EIDW 170330Z 26011KT 9999 FEW010 01/M00 Q0999 NOSIG W (260°) 12.7mph 1°C 0°C
17/03/19 03:00 EIDW 170300Z 25011KT 9999 FEW010 01/00 Q0999 NOSIG WSW (250°) 12.7mph 1°C 0°C
17/03/19 02:30 EIDW 170230Z 25012KT 220V280 9999 FEW012 02/00 Q0999 NOSIG WSW (250°) 13.8mph 2°C 0°C
17/03/19 02:00 EIDW 170200Z 26013G23KT 230V290 9999 FEW012 02/00 Q0999 NOSIG W (260°) 15.0mph 26.5mph 2°C 0°C
17/03/19 01:30 EIDW 170130Z 26016KT 9999 FEW012 02/00 Q0998 NOSIG W (260°) 18.4mph 2°C 0°C
17/03/19 01:00 EIDW 170100Z 25012KT 220V280 9999 FEW012 02/00 Q0998 NOSIG WSW (250°) 13.8mph 2°C 0°C
17/03/19 00:30 EIDW 170030Z 26015KT 9999 SCT012 02/00 Q0998 NOSIG W (260°) 17.3mph 2°C 0°C
17/03/19 00:00 EIDW 170000Z 26014KT 9999 -SHRA SCT012 BKN050 02/01 Q0998 NOSIG -SHRA W (260°) 16.1mph 2°C 1°C
16/03/19 23:30 EIDW 162330Z 26015KT 9999 FEW010 SCT150 02/01 Q0997 NOSIG W (260°) 17.3mph 2°C 1°C
16/03/19 23:00 EIDW 162300Z 26014KT 9999 FEW010 SCT150 03/01 Q0997 NOSIG W (260°) 16.1mph 3°C 1°C
16/03/19 22:30 EIDW 162230Z 26013KT 9999 FEW010 03/01 Q0997 NOSIG W (260°) 15.0mph 3°C 1°C
16/03/19 22:00 EIDW 162200Z 26014KT 9999 FEW020 03/01 Q0996 NOSIG W (260°) 16.1mph 3°C 1°C
16/03/19 21:30 EIDW 162130Z 26013KT 9999 FEW020 03/01 Q0996 NOSIG W (260°) 15.0mph 3°C 1°C
16/03/19 21:00 EIDW 162100Z 27014KT 9999 FEW020 SCT150 03/01 Q0996 NOSIG W (270°) 16.1mph 3°C 1°C
16/03/19 20:30 EIDW 162030Z 26011KT 9999 FEW018CB BKN120 03/01 Q0995 NOSIG W (260°) 12.7mph 3°C 1°C
16/03/19 20:00 EIDW 162000Z 26012KT 9999 FEW018CB BKN030 04/02 Q0994 NOSIG W (260°) 13.8mph 4°C 2°C
16/03/19 19:30 EIDW 161930Z 27013KT 230V290 9999 FEW018CB BKN060 04/02 Q0994 NOSIG W (270°) 15.0mph 4°C 2°C
16/03/19 19:00 EIDW 161900Z 28014KT 9999 FEW018 BKN030 05/02 Q0994 NOSIG W (280°) 16.1mph 5°C 2°C
16/03/19 18:30 EIDW 161830Z 28016KT 9999 FEW018 BKN025 05/03 Q0993 NOSIG W (280°) 18.4mph 5°C 3°C
16/03/19 18:00 EIDW 161800Z 27015KT 9999 FEW018 FEW020CB 05/02 Q0992 NOSIG W (270°) 17.3mph 5°C 2°C
16/03/19 17:30 EIDW 161730Z 28017KT 9999 FEW018 FEW020CB BKN030 06/03 Q0992 NOSIG W (280°) 19.6mph 6°C 3°C
16/03/19 17:00 EIDW 161700Z 27016KT 9999 FEW018 FEW020CB BKN060 07/03 Q0991 NOSIG W (270°) 18.4mph 7°C 3°C
16/03/19 16:30 EIDW 161630Z 27020KT 9999 -SHRA FEW018 FEW020CB BKN060 06/03 Q0991 NOSIG -SHRA W (270°) 23.0mph 6°C 3°C
16/03/19 16:00 EIDW 161600Z 29018KT 9999 FEW018 SCT025 BKN220 07/03 Q0990 NOSIG WNW (290°) 20.7mph 7°C 3°C
16/03/19 15:30 EIDW 161530Z 28022KT 9999 FEW018 SCT022 BKN120 07/03 Q0990 NOSIG W (280°) 25.3mph 7°C 3°C
16/03/19 15:00 EIDW 161500Z 28026KT 9999 FEW012 SCT022 BKN120 07/04 Q0989 NOSIG W (280°) 29.9mph 7°C 4°C
16/03/19 14:30 EIDW 161430Z 28025KT 9999 FEW010 SCT014 BKN030 07/04 Q0988 NOSIG W (280°) 28.8mph 7°C 4°C
16/03/19 14:00 EIDW 161400Z 27023G35KT 9999 -RA FEW010 SCT014 BKN030 08/06 Q0988 NOSIG -RA W (270°) 26.5mph 40.3mph 8°C 6°C
16/03/19 13:30 EIDW 161330Z 25017G28KT 200V280 9999 FEW010 SCT014 BKN022 10/07 Q0987 NOSIG WSW (250°) 19.6mph 32.2mph 10°C 7°C
16/03/19 13:00 EIDW 161300Z 24016G29KT 200V270 9999 FEW010 SCT014 BKN040 11/08 Q0986 NOSIG WSW (240°) 18.4mph 33.4mph 11°C 8°C
16/03/19 12:30 EIDW 161230Z 24015G30KT 200V270 9999 -RA FEW010 SCT014 BKN040 11/08 Q0987 NOSIG -RA WSW (240°) 17.3mph 34.5mph 11°C 8°C
16/03/19 12:00 EIDW 161200Z 24016G29KT 210V290 8000 -RA FEW010 SCT014 BKN040 11/09 Q0987 NOSIG -RA WSW (240°) 18.4mph 33.4mph 11°C 9°C
16/03/19 11:30 EIDW 161130Z 22017G32KT 190V250 9999 -RA FEW010 SCT017 BKN040 11/10 Q0987 NOSIG -RA SW (220°) 19.6mph 36.8mph 11°C 10°C
16/03/19 11:00 EIDW 161100Z 22019G29KT 190V260 9999 -RA FEW010 SCT017 BKN030 12/10 Q0987 NOSIG -RA SW (220°) 21.9mph 33.4mph 12°C 10°C
16/03/19 10:30 EIDW 161030Z 22019G33KT 190V260 9999 FEW010 SCT017 BKN030 12/10 Q0987 WS RWY28 NOSIG SW (220°) 21.9mph 38.0mph 12°C 10°C
16/03/19 10:00 EIDW 161000Z 22018G31KT 200V260 9000 -RA FEW010 SCT017 BKN035 11/09 Q0988 WS RWY28 NOSIG -RA SW (220°) 20.7mph 35.7mph 11°C 9°C
16/03/19 09:30 EIDW 160930Z 22019G34KT 180V260 9000 -RA FEW012 BKN030 BKN050 11/09 Q0988 WS RWY28 NOSIG -RA SW (220°) 21.9mph 39.1mph 11°C 9°C
16/03/19 09:00 EIDW 160900Z 22019G40KT 200V260 9000 -RA FEW012 SCT030 BKN060 11/09 Q0988 WS RWY28 NOSIG -RA SW (220°) 21.9mph 46.0mph 11°C 9°C
16/03/19 08:30 EIDW 160830Z 22019G38KT 190V260 9000 -RA FEW012 SCT030 BKN050 11/09 Q0988 NOSIG -RA SW (220°) 21.9mph 43.7mph 11°C 9°C
16/03/19 08:00 EIDW 160800Z 23019G33KT 190V260 9999 -RA FEW015 SCT045 BKN070 11/09 Q0989 NOSIG -RA SW (230°) 21.9mph 38.0mph 11°C 9°C
16/03/19 07:30 EIDW 160730Z 22019G35KT 180V260 9999 -RA FEW012 SCT060 BKN080 10/09 Q0989 NOSIG -RA SW (220°) 21.9mph 40.3mph 10°C 9°C
16/03/19 07:00 EIDW 160700Z 23017G34KT 180V280 9999 -RA FEW010 SCT060 BKN080 10/09 Q0990 NOSIG -RA SW (230°) 19.6mph 39.1mph 10°C 9°C
16/03/19 06:30 EIDW 160630Z 22017G31KT 190V260 9999 -RA FEW010 BKN060 BKN080 10/09 Q0991 NOSIG -RA SW (220°) 19.6mph 35.7mph 10°C 9°C
16/03/19 06:00 EIDW 160600Z 23018G33KT 190V260 9999 -RA FEW010 SCT020 BKN060 11/09 Q0991 NOSIG -RA SW (230°) 20.7mph 38.0mph 11°C 9°C
16/03/19 05:30 EIDW 160530Z 23017G29KT 190V280 9999 -RA FEW010 SCT020 BKN060 11/09 Q0992 NOSIG -RA SW (230°) 19.6mph 33.4mph 11°C 9°C
16/03/19 05:00 EIDW 160500Z 22017G29KT 190V260 9999 -RA FEW010 SCT030 BKN060 11/09 Q0992 NOSIG -RA SW (220°) 19.6mph 33.4mph 11°C 9°C
16/03/19 04:30 EIDW 160430Z 22016G27KT 190V260 9999 -RA FEW010 SCT030 BKN060 10/09 Q0993 NOSIG -RA SW (220°) 18.4mph 31.1mph 10°C 9°C
16/03/19 04:00 EIDW 160400Z 23014KT 180V270 9999 -RA FEW010 SCT020 BKN045 11/09 Q0994 NOSIG -RA SW (230°) 16.1mph 11°C 9°C
16/03/19 03:30 EIDW 160330Z 23014G24KT 200V260 9999 -RA FEW010 SCT015 BKN020 11/09 Q0994 NOSIG -RA SW (230°) 16.1mph 27.6mph 11°C 9°C